createdAt,value
2023-02-24T00:03:44.937Z,97260.44
2023-02-24T00:08:47.313Z,97254.81
2023-02-24T00:13:48.839Z,97253.75
2023-02-24T00:18:51.056Z,97244.81
2023-02-24T00:23:53.560Z,97243.38
2023-02-24T00:28:55.894Z,97238.94
2023-02-24T00:33:59.280Z,97248.63
2023-02-24T00:39:09.342Z,97244.38
2023-02-24T00:44:14.305Z,97246.91
2023-02-24T00:49:18.443Z,97236.81
2023-02-24T00:54:20.661Z,97239.66
2023-02-24T00:59:23.995Z,97235.19
2023-02-24T01:04:29.209Z,97230.56
2023-02-24T01:09:32.213Z,97230.81
2023-02-24T01:14:34.748Z,97218.25
2023-02-24T01:19:36.707Z,97218.75
2023-02-24T01:24:40.166Z,97217.13
2023-02-24T01:29:41.610Z,97217.66
2023-02-24T01:34:44.122Z,97204.25
2023-02-24T01:39:46.130Z,97202.44
2023-02-24T01:44:47.842Z,97194.13
2023-02-24T01:49:53.871Z,97190.09
2023-02-24T01:54:55.403Z,97177.84
2023-02-24T02:00:09.375Z,97170.03
2023-02-24T02:05:15.134Z,97174.91
2023-02-24T02:10:18.371Z,97165.56
2023-02-24T02:15:20.526Z,97160.09
2023-02-24T02:20:22.257Z,97152.66
2023-02-24T02:25:57.974Z,97144.69
2023-02-24T02:31:08.127Z,97139.38
2023-02-24T02:36:31.172Z,97131.25
2023-02-24T02:41:43.339Z,97130.19
2023-02-24T02:46:51.033Z,97141.41
2023-02-24T02:51:57.295Z,97125.56
2023-02-24T02:57:14.571Z,97128.75
2023-02-24T03:02:21.035Z,97120.97
2023-02-24T03:07:31.172Z,97118.38
2023-02-24T03:12:34.049Z,97124.75
2023-02-24T03:17:42.292Z,97117.69
2023-02-24T03:22:53.353Z,97119.22
2023-02-24T03:27:58.452Z,97121.22
2023-02-24T03:33:16.614Z,97118.28
2023-02-24T03:38:23.141Z,97110.59
2023-02-24T03:43:31.742Z,97111.56
2023-02-24T03:48:43.753Z,97115.78
2023-02-24T03:54:05.601Z,97121.59
2023-02-24T03:59:23.588Z,97117.00
2023-02-24T04:04:37.943Z,97118.81
2023-02-24T04:10:04.609Z,97105.59
2023-02-24T04:15:29.008Z,97098.16
2023-02-24T04:20:34.256Z,97096.34
2023-02-24T04:25:40.665Z,97095.03
2023-02-24T04:30:48.309Z,97068.09
2023-02-24T04:35:50.519Z,97066.94
2023-02-24T04:40:52.447Z,97068.13
2023-02-24T04:45:55.556Z,97062.47
2023-02-24T04:51:02.383Z,97052.88
2023-02-24T04:56:08.759Z,97047.50
2023-02-24T05:01:10.918Z,97043.53
2023-02-24T05:06:17.556Z,97033.94
2023-02-24T05:11:19.450Z,97043.41
2023-02-24T05:16:22.118Z,97034.00
2023-02-24T05:21:35.627Z,97030.22
2023-02-24T05:26:41.525Z,97030.44
2023-02-24T05:31:43.365Z,97035.81
2023-02-24T05:36:45.791Z,97025.91
2023-02-24T05:41:49.608Z,97031.41
2023-02-24T05:46:58.560Z,97026.31
2023-02-24T05:52:08.640Z,97020.00
2023-02-24T05:57:12.981Z,97020.34
2023-02-24T06:02:17.442Z,97017.22
2023-02-24T06:07:29.517Z,97019.03
2023-02-24T06:12:39.730Z,97010.78
2023-02-24T06:17:41.277Z,97016.69
2023-02-24T06:22:42.720Z,97023.81
2023-02-24T06:27:44.184Z,97028.75
2023-02-24T06:32:45.697Z,97026.13
2023-02-24T06:37:47.871Z,97027.94
2023-02-24T06:42:55.144Z,97028.28
2023-02-24T06:47:58.183Z,97017.53
2023-02-24T06:53:00.614Z,97007.13
2023-02-24T06:58:08.229Z,97018.00
2023-02-24T07:03:15.082Z,97016.00
2023-02-24T07:08:18.815Z,97023.75
2023-02-24T07:13:20.233Z,97009.69
2023-02-24T07:18:22.819Z,97024.69
2023-02-24T07:23:24.306Z,97012.59
2023-02-24T07:28:25.722Z,97012.09
2023-02-24T07:33:27.925Z,97002.69
2023-02-24T07:38:29.373Z,97008.59
2023-02-24T07:43:30.807Z,97002.22
2023-02-24T07:48:32.196Z,96990.13
2023-02-24T07:53:34.794Z,96996.94
2023-02-24T07:58:36.245Z,96972.59
2023-02-24T08:03:41.394Z,96977.41
2023-02-24T08:08:57.769Z,96967.72
2023-02-24T08:13:59.200Z,96965.78
2023-02-24T08:19:03.319Z,96957.56
2023-02-24T08:24:05.911Z,96940.13
2023-02-24T08:29:07.361Z,96940.16
2023-02-24T08:34:08.779Z,96930.84
2023-02-24T08:39:10.196Z,96929.44
2023-02-24T08:44:12.845Z,96931.09
2023-02-24T08:49:16.924Z,96916.41
2023-02-24T08:54:26.939Z,96911.44
2023-02-24T08:59:54.612Z,96916.56
2023-02-24T09:05:03.627Z,96898.78
2023-02-24T09:10:17.592Z,96876.34
2023-02-24T09:15:20.526Z,96881.97
2023-02-24T09:20:43.191Z,96871.22
2023-02-24T09:25:44.867Z,96869.41
2023-02-24T09:30:51.593Z,96848.28
2023-02-24T09:36:12.771Z,96839.59
2023-02-24T09:41:31.562Z,96817.06
2023-02-24T09:46:53.618Z,96810.13
2023-02-24T09:52:00.549Z,96811.78
2023-02-24T09:57:10.615Z,96809.25
2023-02-24T10:02:44.221Z,96796.88
2023-02-24T10:07:47.073Z,96795.59
2023-02-24T10:12:52.891Z,96791.06
2023-02-24T10:17:57.918Z,96769.06
2023-02-24T10:23:32.681Z,96768.16
2023-02-24T10:28:54.084Z,96745.22
2023-02-24T10:34:10.977Z,96735.31
2023-02-24T10:39:20.327Z,96718.03
2023-02-24T10:44:24.204Z,96719.69
2023-02-24T10:49:26.711Z,96705.91
2023-02-24T10:54:52.964Z,96691.63
2023-02-24T11:00:18.178Z,96691.91
2023-02-24T11:05:38.604Z,96680.28
2023-02-24T11:10:53.070Z,96668.88
2023-02-24T11:16:14.096Z,96656.13
2023-02-24T11:21:17.003Z,96647.06
2023-02-24T11:26:21.800Z,96633.00
2023-02-24T11:31:45.413Z,96620.59
2023-02-24T11:36:57.253Z,96606.34
2023-02-24T11:42:05.268Z,96597.25
2023-02-24T11:47:15.282Z,96583.06
2023-02-24T11:52:23.579Z,96565.16
2023-02-24T11:57:41.577Z,96561.38
2023-02-24T12:03:06.718Z,96562.19
2023-02-24T12:08:29.657Z,96541.78
2023-02-24T12:13:49.018Z,96539.72
2023-02-24T12:18:59.070Z,96525.44
2023-02-24T12:24:01.377Z,96522.84
2023-02-24T12:29:29.949Z,96517.47
2023-02-24T12:34:47.241Z,96507.19
2023-02-24T12:39:58.521Z,96497.22
2023-02-24T12:45:12.659Z,96496.13
2023-02-24T12:50:23.488Z,96480.63
2023-02-24T12:55:42.589Z,96464.94
2023-02-24T13:00:57.499Z,96452.94
2023-02-24T13:06:09.713Z,96442.72
2023-02-24T13:11:39.794Z,96438.28
2023-02-24T13:16:41.934Z,96426.56
2023-02-24T13:21:43.663Z,96418.59
2023-02-24T13:26:45.117Z,96410.34
2023-02-24T13:31:52.155Z,96401.47
2023-02-24T13:36:53.672Z,96414.81
2023-02-24T13:42:20.363Z,96394.91
2023-02-24T13:47:24.841Z,96387.56
2023-02-24T13:52:32.594Z,96366.28
2023-02-24T13:57:58.973Z,96371.81
2023-02-24T14:03:00.789Z,96375.66
2023-02-24T14:08:04.687Z,96363.56
2023-02-24T14:13:27.563Z,96363.78
2023-02-24T14:18:29.888Z,96355.41
2023-02-24T14:23:33.986Z,96352.25
2023-02-24T14:28:37.667Z,96347.97
2023-02-24T14:33:42.617Z,96359.28
2023-02-24T14:38:45.084Z,96339.50
2023-02-24T14:43:46.514Z,96336.84
2023-02-24T14:48:56.162Z,96332.81
2023-02-24T14:54:01.965Z,96315.31
2023-02-24T14:59:23.168Z,96316.47
2023-02-24T15:04:33.532Z,96300.38
2023-02-24T15:09:42.616Z,96286.59
2023-02-24T15:14:51.710Z,96283.56
2023-02-24T15:19:56.022Z,96271.97
2023-02-24T15:25:12.548Z,96270.94
2023-02-24T15:30:35.904Z,96269.94
2023-02-24T15:35:46.653Z,96262.41
2023-02-24T15:40:57.461Z,96262.41
2023-02-24T15:45:58.999Z,96251.94
2023-02-24T15:51:05.126Z,96246.56
2023-02-24T15:56:06.577Z,96252.19
2023-02-24T16:01:10.849Z,96266.72
2023-02-24T16:06:21.190Z,96239.56
2023-02-24T16:11:26.454Z,96236.84
2023-02-24T16:16:28.200Z,96239.31
2023-02-24T16:21:30.107Z,96238.50
2023-02-24T16:26:36.103Z,96228.66
2023-02-24T16:31:39.153Z,96225.66
2023-02-24T16:36:42.384Z,96229.75
2023-02-24T16:41:43.735Z,96230.47
2023-02-24T16:46:45.836Z,96225.91
2023-02-24T16:51:47.282Z,96215.06
2023-02-24T16:56:49.645Z,96215.63
2023-02-24T17:01:51.106Z,96206.88
2023-02-24T17:06:52.617Z,96205.16
2023-02-24T17:11:54.030Z,96196.22
2023-02-24T17:16:55.618Z,96201.13
2023-02-24T17:21:57.138Z,96190.78
2023-02-24T17:26:59.783Z,96191.59
2023-02-24T17:32:01.461Z,96188.59
2023-02-24T17:37:04.246Z,96188.59
2023-02-24T17:42:06.038Z,96186.66
2023-02-24T17:47:08.918Z,96175.47
2023-02-24T17:52:10.540Z,96161.56
2023-02-24T17:57:12.000Z,96166.00
2023-02-24T18:02:15.600Z,96152.91
2023-02-24T18:07:17.640Z,96153.97
2023-02-24T18:12:20.769Z,96156.31
2023-02-24T18:17:23.351Z,96137.31
2023-02-24T18:22:25.371Z,96137.00
2023-02-24T18:27:27.092Z,96146.22
2023-02-24T18:32:28.837Z,96141.66
2023-02-24T18:37:30.481Z,96132.81
2023-02-24T18:42:32.276Z,96140.00
2023-02-24T18:47:33.680Z,96127.88
2023-02-24T18:52:35.205Z,96123.78
2023-02-24T18:57:36.986Z,96109.41
2023-02-24T19:02:38.684Z,96112.88
2023-02-24T19:07:40.253Z,96108.22
2023-02-24T19:12:41.711Z,96095.34
2023-02-24T19:17:44.096Z,96086.50
2023-02-24T19:22:45.613Z,96086.22
2023-02-24T19:27:49.760Z,96087.38
2023-02-24T19:32:51.495Z,96086.53
2023-02-24T19:37:53.136Z,96081.47
2023-02-24T19:42:54.623Z,96068.81
2023-02-24T19:47:56.211Z,96073.72
2023-02-24T19:52:57.788Z,96075.59
2023-02-24T19:57:59.427Z,96063.50
2023-02-24T20:03:00.919Z,96064.34
2023-02-24T20:08:02.605Z,96065.63
2023-02-24T20:13:04.970Z,96062.00
2023-02-24T20:18:08.658Z,96064.94
2023-02-24T20:23:10.097Z,96052.66
2023-02-24T20:28:11.767Z,96042.56
2023-02-24T20:33:13.249Z,96047.13
2023-02-24T20:38:15.231Z,96047.59
2023-02-24T20:43:16.675Z,96041.94
2023-02-24T20:48:18.459Z,96037.16
2023-02-24T20:53:19.925Z,96032.50
2023-02-24T20:58:21.430Z,96033.31
2023-02-24T21:03:24.250Z,96028.16
2023-02-24T21:08:25.676Z,96024.63
2023-02-24T21:13:27.165Z,96021.69
2023-02-24T21:18:28.668Z,96008.34
2023-02-24T21:23:30.668Z,95997.78
2023-02-24T21:28:32.330Z,95988.88
2023-02-24T21:33:34.520Z,95981.75
2023-02-24T21:38:36.976Z,95976.31
2023-02-24T21:43:39.034Z,95980.41
2023-02-24T21:48:41.626Z,95975.97
2023-02-24T21:53:44.366Z,95978.59
2023-02-24T21:58:48.895Z,95976.41
2023-02-24T22:03:57.272Z,95971.94
2023-02-24T22:09:00.039Z,95980.31
2023-02-24T22:14:01.662Z,95966.03
2023-02-24T22:19:03.995Z,95957.28
2023-02-24T22:24:05.694Z,95944.75
2023-02-24T22:29:07.741Z,95947.03
2023-02-24T22:34:09.276Z,95955.66
2023-02-24T22:39:10.948Z,95948.50
2023-02-24T22:44:14.129Z,95938.59
2023-02-24T22:49:15.482Z,95932.66
2023-02-24T22:54:17.593Z,95934.50
2023-02-24T22:59:18.991Z,95929.22
2023-02-24T23:04:20.474Z,95931.66
2023-02-24T23:09:21.924Z,95936.97
2023-02-24T23:14:23.345Z,95934.34
2023-02-24T23:19:25.519Z,95931.50
2023-02-24T23:24:26.918Z,95935.59
2023-02-24T23:29:30.654Z,95938.88
2023-02-24T23:34:32.130Z,95940.94
2023-02-24T23:39:33.548Z,95937.78
2023-02-24T23:44:37.584Z,95936.69
2023-02-24T23:49:48.275Z,95935.66
2023-02-24T23:54:50.663Z,95943.34
2023-02-24T23:59:52.196Z,95936.22
